createdAt,value
2023-03-19T00:00:04.275Z,93470.53
2023-03-19T00:01:36.060Z,93467.31
2023-03-19T00:03:07.614Z,93464.81
2023-03-19T00:04:39.336Z,93464.28
2023-03-19T00:06:11.033Z,93469.59
2023-03-19T00:07:42.563Z,93467.41
2023-03-19T00:09:14.037Z,93462.59
2023-03-19T00:10:45.553Z,93463.63
2023-03-19T00:12:17.295Z,93464.13
2023-03-19T00:13:48.816Z,93454.00
2023-03-19T00:15:20.503Z,93456.31
2023-03-19T00:16:52.286Z,93451.75
2023-03-19T00:18:23.812Z,93451.44
2023-03-19T00:19:55.362Z,93448.94
2023-03-19T00:21:29.527Z,93443.56
2023-03-19T00:23:02.403Z,93444.28
2023-03-19T00:24:35.178Z,93442.94
2023-03-19T00:26:06.840Z,93442.13
2023-03-19T00:27:38.571Z,93439.47
2023-03-19T00:29:10.179Z,93441.31
2023-03-19T00:30:42.082Z,93433.09
2023-03-19T00:32:13.681Z,93438.41
2023-03-19T00:33:45.378Z,93431.25
2023-03-19T00:35:16.977Z,93432.38
2023-03-19T00:36:49.011Z,93427.09
2023-03-19T00:38:20.687Z,93431.09
2023-03-19T00:39:52.238Z,93432.94
2023-03-19T00:41:23.913Z,93436.41
2023-03-19T00:42:55.500Z,93429.72
2023-03-19T00:44:27.735Z,93428.59
2023-03-19T00:45:59.340Z,93431.50
2023-03-19T00:47:30.961Z,93426.69
2023-03-19T00:49:02.683Z,93425.56
2023-03-19T00:50:34.231Z,93423.63
2023-03-19T00:52:05.834Z,93422.28
2023-03-19T00:53:38.232Z,93427.56
2023-03-19T00:55:10.578Z,93431.03
2023-03-19T00:56:42.211Z,93428.94
2023-03-19T00:58:13.789Z,93426.03
2023-03-19T00:59:45.678Z,93424.50
2023-03-19T01:01:18.313Z,93425.06
2023-03-19T01:02:49.932Z,93425.06
2023-03-19T01:04:21.816Z,93418.41
2023-03-19T01:05:53.323Z,93415.75
2023-03-19T01:07:24.865Z,93423.22
2023-03-19T01:08:56.772Z,93414.00
2023-03-19T01:10:28.374Z,93413.19
2023-03-19T01:12:03.888Z,93416.66
2023-03-19T01:13:35.522Z,93418.97
2023-03-19T01:15:07.359Z,93411.81
2023-03-19T01:16:39.420Z,93406.06
2023-03-19T01:18:11.913Z,93413.19
2023-03-19T01:19:43.448Z,93407.47
2023-03-19T01:21:15.325Z,93410.28
2023-03-19T01:22:46.900Z,93406.78
2023-03-19T01:24:19.000Z,93411.75
2023-03-19T01:25:50.747Z,93413.00
2023-03-19T01:27:22.478Z,93415.09
2023-03-19T01:28:54.140Z,93411.34
2023-03-19T01:30:25.904Z,93412.13
2023-03-19T01:31:57.442Z,93410.53
2023-03-19T01:33:29.004Z,93407.88
2023-03-19T01:35:00.526Z,93410.28
2023-03-19T01:36:32.287Z,93409.00
2023-03-19T01:38:03.850Z,93402.41
2023-03-19T01:39:35.479Z,93406.91
2023-03-19T01:41:07.726Z,93406.91
2023-03-19T01:42:52.322Z,93400.81
2023-03-19T01:44:27.977Z,93408.53
2023-03-19T01:46:00.969Z,93405.16
2023-03-19T01:47:37.023Z,93409.56
2023-03-19T01:49:09.321Z,93405.31
2023-03-19T01:50:42.058Z,93401.84
2023-03-19T01:52:13.750Z,93405.00
2023-03-19T01:53:46.538Z,93402.00
2023-03-19T01:55:18.308Z,93405.13
2023-03-19T01:56:53.586Z,93402.25
2023-03-19T01:58:26.055Z,93407.22
2023-03-19T01:59:58.179Z,93402.41
2023-03-19T02:01:30.228Z,93399.66
2023-03-19T02:03:02.506Z,93400.69
2023-03-19T02:04:34.270Z,93395.97
2023-03-19T02:06:06.434Z,93407.59
2023-03-19T02:07:38.522Z,93406.22
2023-03-19T02:09:10.115Z,93401.75
2023-03-19T02:10:41.794Z,93399.91
2023-03-19T02:12:13.278Z,93399.44
2023-03-19T02:13:44.783Z,93394.38
2023-03-19T02:15:17.025Z,93399.09
2023-03-19T02:16:48.713Z,93406.72
2023-03-19T02:18:20.315Z,93406.97
2023-03-19T02:19:54.690Z,93399.81
2023-03-19T02:21:26.293Z,93400.63
2023-03-19T02:23:14.075Z,93407.78
2023-03-19T02:24:49.129Z,93414.41
2023-03-19T02:26:21.256Z,93412.81
2023-03-19T02:27:52.807Z,93412.50
2023-03-19T02:29:24.376Z,93416.19
2023-03-19T02:30:55.908Z,93410.53
2023-03-19T02:32:27.643Z,93412.16
2023-03-19T02:33:59.991Z,93415.53
2023-03-19T02:35:32.373Z,93415.28
2023-03-19T02:37:05.743Z,93423.22
2023-03-19T02:38:37.360Z,93419.22
2023-03-19T02:40:09.869Z,93424.19
2023-03-19T02:41:41.602Z,93420.97
2023-03-19T02:43:13.310Z,93421.41
2023-03-19T02:44:44.944Z,93422.38
2023-03-19T02:46:17.043Z,93427.56
2023-03-19T02:47:48.776Z,93417.81
2023-03-19T02:49:20.324Z,93420.38
2023-03-19T02:50:52.380Z,93413.13
2023-03-19T02:52:23.896Z,93419.97
2023-03-19T02:53:55.543Z,93411.91
2023-03-19T02:55:27.427Z,93416.63
2023-03-19T02:56:59.235Z,93415.81
2023-03-19T02:58:30.787Z,93421.09
2023-03-19T03:00:02.795Z,93423.75
2023-03-19T03:01:34.407Z,93422.72
2023-03-19T03:03:06.764Z,93427.19
2023-03-19T03:04:39.076Z,93426.75
2023-03-19T03:06:10.700Z,93432.84
2023-03-19T03:07:43.962Z,93436.53
2023-03-19T03:09:15.567Z,93437.09
2023-03-19T03:10:47.060Z,93441.13
2023-03-19T03:12:18.685Z,93438.47
2023-03-19T03:13:50.267Z,93440.31
2023-03-19T03:15:22.159Z,93445.84
2023-03-19T03:16:53.766Z,93437.09
2023-03-19T03:18:25.306Z,93440.31
2023-03-19T03:19:56.874Z,93442.97
2023-03-19T03:21:28.494Z,93443.50
2023-03-19T03:22:59.981Z,93442.38
2023-03-19T03:24:31.749Z,93447.09
2023-03-19T03:26:03.380Z,93451.81
2023-03-19T03:27:34.984Z,93447.47
2023-03-19T03:29:06.579Z,93451.03
2023-03-19T03:30:38.243Z,93454.63
2023-03-19T03:32:09.910Z,93446.56
2023-03-19T03:33:41.725Z,93445.66
2023-03-19T03:35:13.409Z,93445.31
2023-03-19T03:36:47.106Z,93442.09
2023-03-19T03:38:18.820Z,93447.59
2023-03-19T03:39:51.509Z,93446.25
2023-03-19T03:41:23.127Z,93446.25
2023-03-19T03:42:54.923Z,93447.50
2023-03-19T03:44:27.005Z,93442.09
2023-03-19T03:45:58.654Z,93444.41
2023-03-19T03:47:30.539Z,93440.16
2023-03-19T03:49:02.118Z,93445.91
2023-03-19T03:50:33.929Z,93451.19
2023-03-19T03:52:06.254Z,93453.84
2023-03-19T03:53:37.846Z,93458.09
2023-03-19T03:55:10.081Z,93444.41
2023-03-19T03:56:41.872Z,93444.75
2023-03-19T03:58:13.801Z,93444.50
2023-03-19T03:59:45.410Z,93449.94
2023-03-19T04:01:17.411Z,93450.63
2023-03-19T04:02:48.987Z,93445.78
2023-03-19T04:04:21.016Z,93452.34
2023-03-19T04:05:54.471Z,93452.00
2023-03-19T04:07:26.039Z,93448.19
2023-03-19T04:08:57.574Z,93446.81
2023-03-19T04:10:29.136Z,93453.94
2023-03-19T04:12:01.131Z,93451.63
2023-03-19T04:13:37.030Z,93447.97
2023-03-19T04:15:09.193Z,93444.97
2023-03-19T04:16:40.747Z,93444.16
2023-03-19T04:18:12.356Z,93441.78
2023-03-19T04:19:44.184Z,93440.59
2023-03-19T04:21:15.885Z,93438.78
2023-03-19T04:22:47.436Z,93444.97
2023-03-19T04:24:18.960Z,93441.66
2023-03-19T04:25:50.706Z,93441.88
2023-03-19T04:27:22.270Z,93438.66
2023-03-19T04:28:53.888Z,93443.94
2023-03-19T04:30:25.426Z,93451.88
2023-03-19T04:31:57.279Z,93448.19
2023-03-19T04:33:29.965Z,93450.84
2023-03-19T04:35:01.680Z,93449.44
2023-03-19T04:36:33.589Z,93456.59
2023-03-19T04:38:05.740Z,93448.66
2023-03-19T04:39:37.861Z,93452.66
2023-03-19T04:41:09.476Z,93457.38
2023-03-19T04:42:41.572Z,93453.94
2023-03-19T04:44:13.699Z,93462.44
2023-03-19T04:45:45.511Z,93462.34
2023-03-19T04:47:17.108Z,93459.91
2023-03-19T04:48:48.773Z,93454.50
2023-03-19T04:50:20.428Z,93458.97
2023-03-19T04:51:51.958Z,93465.88
2023-03-19T04:53:24.796Z,93464.72
2023-03-19T04:54:56.360Z,93461.06
2023-03-19T04:56:28.040Z,93463.72
2023-03-19T04:57:59.788Z,93457.84
2023-03-19T04:59:31.578Z,93460.69
2023-03-19T05:01:04.184Z,93469.66
2023-03-19T05:02:36.035Z,93469.88
2023-03-19T05:04:08.448Z,93464.59
2023-03-19T05:05:40.119Z,93460.13
2023-03-19T05:07:12.638Z,93468.19
2023-03-19T05:08:44.525Z,93470.84
2023-03-19T05:10:16.188Z,93465.44
2023-03-19T05:11:47.936Z,93467.28
2023-03-19T05:13:21.626Z,93451.41
2023-03-19T05:14:53.471Z,93463.94
2023-03-19T05:16:26.214Z,93464.16
2023-03-19T05:17:57.946Z,93455.19
2023-03-19T05:19:32.787Z,93456.50
2023-03-19T05:21:05.137Z,93446.47
2023-03-19T05:22:36.815Z,93448.84
2023-03-19T05:24:08.416Z,93443.28
2023-03-19T05:25:40.916Z,93436.09
2023-03-19T05:27:12.801Z,93437.16
2023-03-19T05:28:44.845Z,93441.13
2023-03-19T05:30:18.438Z,93441.53
2023-03-19T05:31:50.290Z,93435.34
2023-03-19T05:33:22.850Z,93435.84
2023-03-19T05:34:54.439Z,93433.44
2023-03-19T05:36:25.966Z,93436.31
2023-03-19T05:37:57.647Z,93435.41
2023-03-19T05:39:29.324Z,93437.16
2023-03-19T05:41:04.430Z,93439.94
2023-03-19T05:42:35.962Z,93442.44
2023-03-19T05:44:07.698Z,93435.88
2023-03-19T05:45:39.829Z,93443.94
2023-03-19T05:47:12.467Z,93442.38
2023-03-19T05:48:44.293Z,93440.84
2023-03-19T05:50:16.912Z,93440.41
2023-03-19T05:51:48.541Z,93445.78
2023-03-19T05:53:20.356Z,93449.63
2023-03-19T05:54:51.931Z,93446.47
2023-03-19T05:56:23.651Z,93455.81
2023-03-19T05:57:55.992Z,93453.38
2023-03-19T05:59:27.699Z,93455.72
2023-03-19T06:00:59.779Z,93457.66
2023-03-19T06:02:31.591Z,93455.28
2023-03-19T06:04:05.960Z,93453.03
2023-03-19T06:05:37.850Z,93459.41
2023-03-19T06:07:09.536Z,93454.97
2023-03-19T06:08:54.878Z,93460.56
2023-03-19T06:10:33.902Z,93463.78
2023-03-19T06:12:10.314Z,93469.75
2023-03-19T06:13:46.651Z,93464.28
2023-03-19T06:15:19.648Z,93472.63
2023-03-19T06:16:51.608Z,93471.44
2023-03-19T06:18:23.818Z,93471.53
2023-03-19T06:19:55.586Z,93468.94
2023-03-19T06:21:30.077Z,93461.81
2023-03-19T06:23:02.039Z,93462.97
2023-03-19T06:24:34.232Z,93462.03
2023-03-19T06:26:06.518Z,93459.25
2023-03-19T06:27:38.215Z,93460.97
2023-03-19T06:29:10.293Z,93458.34
2023-03-19T06:30:42.010Z,93465.50
2023-03-19T06:32:13.897Z,93467.91
2023-03-19T06:33:45.820Z,93467.91
2023-03-19T06:35:17.667Z,93465.00
2023-03-19T06:36:49.314Z,93474.00
2023-03-19T06:38:21.446Z,93481.69
2023-03-19T06:39:54.947Z,93477.72
2023-03-19T06:41:26.822Z,93478.56
2023-03-19T06:42:58.395Z,93481.50
2023-03-19T06:44:30.217Z,93481.31
2023-03-19T06:46:02.470Z,93485.09
2023-03-19T06:47:34.148Z,93482.97
2023-03-19T06:49:06.190Z,93475.28
2023-03-19T06:50:37.857Z,93481.41
2023-03-19T06:52:09.772Z,93483.63
2023-03-19T06:53:41.550Z,93489.75
2023-03-19T06:55:13.311Z,93485.81
2023-03-19T06:56:45.327Z,93492.03
2023-03-19T06:58:21.393Z,93489.94
2023-03-19T06:59:58.022Z,93489.13
2023-03-19T07:01:31.709Z,93481.13
2023-03-19T07:03:03.905Z,93484.38
2023-03-19T07:04:36.028Z,93482.28
2023-03-19T07:06:07.852Z,93476.41
2023-03-19T07:07:41.056Z,93486.56
2023-03-19T07:09:13.122Z,93482.81
2023-03-19T07:10:45.056Z,93482.78
2023-03-19T07:12:17.520Z,93474.25
2023-03-19T07:13:49.195Z,93473.97
2023-03-19T07:15:22.152Z,93474.47
2023-03-19T07:16:53.960Z,93476.88
2023-03-19T07:18:25.915Z,93477.41
2023-03-19T07:19:58.080Z,93478.44
2023-03-19T07:21:30.386Z,93480.84
2023-03-19T07:23:02.755Z,93477.63
2023-03-19T07:24:34.604Z,93481.34
2023-03-19T07:26:06.646Z,93474.63
2023-03-19T07:27:38.327Z,93487.91
2023-03-19T07:29:10.193Z,93478.19
2023-03-19T07:30:41.990Z,93473.81
2023-03-19T07:32:14.578Z,93479.91
2023-03-19T07:33:46.709Z,93479.53
2023-03-19T07:35:18.385Z,93471.41
2023-03-19T07:36:50.196Z,93466.00
2023-03-19T07:38:21.784Z,93470.97
2023-03-19T07:39:53.376Z,93470.09
2023-03-19T07:41:25.500Z,93471.88
2023-03-19T07:42:57.933Z,93468.00
2023-03-19T07:44:29.952Z,93472.97
2023-03-19T07:46:01.788Z,93476.00
2023-03-19T07:47:33.560Z,93473.00
2023-03-19T07:49:05.312Z,93468.31
2023-03-19T07:50:37.171Z,93470.88
2023-03-19T07:52:09.149Z,93469.44
2023-03-19T07:53:40.903Z,93471.78
2023-03-19T07:55:12.675Z,93472.22
2023-03-19T07:56:44.637Z,93472.66
2023-03-19T07:58:17.116Z,93477.56
2023-03-19T07:59:48.773Z,93474.22
2023-03-19T08:01:23.197Z,93478.22
2023-03-19T08:02:55.065Z,93479.38
2023-03-19T08:04:27.321Z,93476.84
2023-03-19T08:06:00.431Z,93475.53
2023-03-19T08:07:32.844Z,93471.81
2023-03-19T08:09:05.385Z,93470.69
2023-03-19T08:10:38.614Z,93475.91
2023-03-19T08:12:11.895Z,93472.56
2023-03-19T08:13:43.516Z,93471.09
2023-03-19T08:15:15.399Z,93469.28
2023-03-19T08:16:47.135Z,93464.53
2023-03-19T08:18:19.034Z,93472.00
2023-03-19T08:19:51.663Z,93468.84
2023-03-19T08:21:23.427Z,93472.78
2023-03-19T08:22:55.288Z,93477.81
2023-03-19T08:24:27.102Z,93477.41
2023-03-19T08:25:58.733Z,93473.56
2023-03-19T08:27:31.575Z,93475.88
2023-03-19T08:29:04.311Z,93475.16
2023-03-19T08:30:36.999Z,93470.28
2023-03-19T08:32:08.965Z,93467.03
2023-03-19T08:33:40.945Z,93468.81
2023-03-19T08:35:12.544Z,93465.53
2023-03-19T08:36:44.316Z,93465.53
2023-03-19T08:38:16.580Z,93467.44
2023-03-19T08:39:51.213Z,93463.38
2023-03-19T08:41:23.116Z,93462.44
2023-03-19T08:42:55.346Z,93464.94
2023-03-19T08:44:27.772Z,93464.84
2023-03-19T08:45:59.846Z,93462.88
2023-03-19T08:47:32.531Z,93465.13
2023-03-19T08:49:04.166Z,93458.44
2023-03-19T08:50:36.347Z,93453.94
2023-03-19T08:52:08.877Z,93467.91
2023-03-19T08:53:40.771Z,93462.22
2023-03-19T08:55:12.945Z,93464.81
2023-03-19T08:56:44.893Z,93458.81
2023-03-19T08:58:16.702Z,93464.69
2023-03-19T08:59:48.381Z,93459.69
2023-03-19T09:01:20.709Z,93462.56
2023-03-19T09:02:52.357Z,93455.50
2023-03-19T09:04:24.129Z,93450.81
2023-03-19T09:05:58.270Z,93453.72
2023-03-19T09:07:30.490Z,93458.81
2023-03-19T09:09:02.192Z,93452.50
2023-03-19T09:10:34.177Z,93450.19
2023-03-19T09:12:07.732Z,93447.00
2023-03-19T09:13:40.374Z,93450.97
2023-03-19T09:15:12.498Z,93446.91
2023-03-19T09:16:44.716Z,93447.59
2023-03-19T09:18:16.764Z,93443.13
2023-03-19T09:19:48.665Z,93449.53
2023-03-19T09:21:21.323Z,93440.00
2023-03-19T09:22:53.025Z,93444.69
2023-03-19T09:24:24.596Z,93446.59
2023-03-19T09:25:56.892Z,93440.41
2023-03-19T09:27:28.954Z,93453.59
2023-03-19T09:29:01.762Z,93446.63
2023-03-19T09:30:33.474Z,93446.00
2023-03-19T09:32:05.240Z,93439.94
2023-03-19T09:33:36.945Z,93439.84
2023-03-19T09:35:09.040Z,93434.97
2023-03-19T09:36:41.219Z,93435.19
2023-03-19T09:38:13.047Z,93431.09
2023-03-19T09:39:45.134Z,93433.50
2023-03-19T09:41:32.288Z,93433.19
2023-03-19T09:43:04.141Z,93430.50
2023-03-19T09:44:38.027Z,93439.41
2023-03-19T09:46:14.972Z,93437.78
2023-03-19T09:47:47.847Z,93432.84
2023-03-19T09:49:26.755Z,93430.00
2023-03-19T09:50:58.424Z,93433.19
2023-03-19T09:52:46.029Z,93430.13
2023-03-19T09:54:28.440Z,93434.63
2023-03-19T09:56:00.184Z,93426.00
2023-03-19T09:57:33.577Z,93435.69
2023-03-19T09:59:05.726Z,93436.28
2023-03-19T10:00:38.148Z,93440.28
2023-03-19T10:02:13.495Z,93435.34
2023-03-19T10:03:47.093Z,93430.19
2023-03-19T10:05:28.236Z,93436.06
2023-03-19T10:07:04.590Z,93433.50
2023-03-19T10:08:42.248Z,93425.06
2023-03-19T10:10:29.563Z,93429.34
2023-03-19T10:12:19.315Z,93429.50
2023-03-19T10:14:05.747Z,93433.50
2023-03-19T10:15:38.539Z,93424.34
2023-03-19T10:17:17.959Z,93423.69
2023-03-19T10:18:50.559Z,93420.34
2023-03-19T10:20:34.022Z,93427.47
2023-03-19T10:22:07.759Z,93418.28
2023-03-19T10:23:39.721Z,93420.75
2023-03-19T10:25:11.885Z,93414.00
2023-03-19T10:26:43.623Z,93412.38
2023-03-19T10:28:16.277Z,93404.06
2023-03-19T10:29:48.239Z,93402.09
2023-03-19T10:31:26.105Z,93402.34
2023-03-19T10:33:12.627Z,93397.53
2023-03-19T10:34:54.486Z,93397.38
2023-03-19T10:36:27.814Z,93392.84
2023-03-19T10:37:59.478Z,93387.22
2023-03-19T10:39:31.997Z,93387.09
2023-03-19T10:41:06.558Z,93387.00
2023-03-19T10:43:02.572Z,93391.78
2023-03-19T10:44:44.474Z,93380.88
2023-03-19T10:46:16.552Z,93385.22
2023-03-19T10:47:49.076Z,93376.19
2023-03-19T10:49:24.651Z,93378.81
2023-03-19T10:51:00.746Z,93373.00
2023-03-19T10:52:33.236Z,93366.44
2023-03-19T10:54:13.956Z,93356.56
2023-03-19T10:55:49.147Z,93358.75
2023-03-19T10:57:26.031Z,93355.84
2023-03-19T10:59:07.504Z,93345.97
2023-03-19T11:00:39.191Z,93352.78
2023-03-19T11:02:21.428Z,93351.22
2023-03-19T11:03:56.959Z,93348.16
2023-03-19T11:05:31.840Z,93346.44
2023-03-19T11:07:04.124Z,93339.88
2023-03-19T11:08:39.276Z,93340.78
2023-03-19T11:10:14.927Z,93339.78
2023-03-19T11:11:50.545Z,93335.56
2023-03-19T11:13:23.692Z,93334.06
2023-03-19T11:14:56.830Z,93330.69
2023-03-19T11:16:29.493Z,93335.84
2023-03-19T11:18:02.548Z,93328.75
2023-03-19T11:19:36.270Z,93325.03
2023-03-19T11:21:10.096Z,93318.56
2023-03-19T11:22:42.100Z,93317.91
2023-03-19T11:24:13.820Z,93312.25
2023-03-19T11:25:55.039Z,93314.50
2023-03-19T11:27:35.064Z,93308.13
2023-03-19T11:29:07.036Z,93301.00
2023-03-19T11:30:40.920Z,93298.59
2023-03-19T11:32:38.961Z,93304.56
2023-03-19T11:34:28.898Z,93299.75
2023-03-19T11:36:19.075Z,93287.50
2023-03-19T11:37:53.820Z,93279.94
2023-03-19T11:39:31.082Z,93285.19
2023-03-19T11:41:02.749Z,93280.28
2023-03-19T11:42:52.946Z,93284.94
2023-03-19T11:44:34.551Z,93279.47
2023-03-19T11:46:19.677Z,93281.44
2023-03-19T11:47:51.628Z,93275.06
2023-03-19T11:49:23.417Z,93285.06
2023-03-19T11:51:04.485Z,93282.31
2023-03-19T11:52:36.249Z,93276.88
2023-03-19T11:54:11.075Z,93274.13
2023-03-19T11:55:51.009Z,93268.91
2023-03-19T11:57:46.775Z,93259.78
2023-03-19T11:59:37.284Z,93265.09
2023-03-19T12:01:16.272Z,93261.19
2023-03-19T12:03:03.051Z,93257.19
2023-03-19T12:04:41.424Z,93262.47
2023-03-19T12:06:28.614Z,93255.69
2023-03-19T12:08:04.968Z,93259.91
2023-03-19T12:09:59.748Z,93257.06
2023-03-19T12:11:43.124Z,93255.25
2023-03-19T12:13:34.122Z,93251.56
2023-03-19T12:15:25.887Z,93251.13
2023-03-19T12:16:57.680Z,93252.78
2023-03-19T12:18:44.867Z,93249.16
2023-03-19T12:20:16.831Z,93251.38
2023-03-19T12:21:51.878Z,93242.53
2023-03-19T12:23:28.035Z,93241.38
2023-03-19T12:24:59.811Z,93245.53
2023-03-19T12:26:43.823Z,93243.16
2023-03-19T12:28:18.665Z,93234.19
2023-03-19T12:30:01.317Z,93225.28
2023-03-19T12:32:05.848Z,93232.22
2023-03-19T12:33:46.899Z,93231.38
2023-03-19T12:35:19.436Z,93225.91
2023-03-19T12:36:53.649Z,93223.31
2023-03-19T12:38:27.626Z,93216.19
2023-03-19T12:40:08.072Z,93219.53
2023-03-19T12:41:42.005Z,93218.63
2023-03-19T12:43:17.470Z,93219.91
2023-03-19T12:44:51.369Z,93217.63
2023-03-19T12:46:42.507Z,93217.19
2023-03-19T12:48:18.659Z,93213.53
2023-03-19T12:50:10.645Z,93218.59
2023-03-19T12:51:46.587Z,93210.25
2023-03-19T12:53:36.867Z,93213.41
2023-03-19T12:55:17.115Z,93208.44
2023-03-19T12:56:59.852Z,93204.00
2023-03-19T12:58:38.028Z,93211.84
2023-03-19T13:00:11.914Z,93207.59
2023-03-19T13:01:50.373Z,93203.84
2023-03-19T13:03:34.530Z,93207.22
2023-03-19T13:05:10.177Z,93196.84
2023-03-19T13:06:50.007Z,93200.00
2023-03-19T13:08:34.367Z,93197.34
2023-03-19T13:10:14.106Z,93207.69
2023-03-19T13:12:07.408Z,93192.28
2023-03-19T13:13:53.581Z,93201.91
2023-03-19T13:15:32.203Z,93198.13
2023-03-19T13:17:13.461Z,93199.59
2023-03-19T13:18:50.834Z,93190.06
2023-03-19T13:20:48.791Z,93191.66
2023-03-19T13:22:24.857Z,93183.88
2023-03-19T13:24:05.226Z,93183.09
2023-03-19T13:25:38.047Z,93176.81
2023-03-19T13:27:11.960Z,93176.41
2023-03-19T13:29:22.338Z,93176.69
2023-03-19T13:31:07.192Z,93174.50
2023-03-19T13:32:43.380Z,93166.06
2023-03-19T13:34:35.609Z,93171.59
2023-03-19T13:36:10.993Z,93171.59
2023-03-19T13:37:43.194Z,93179.59
2023-03-19T13:39:15.953Z,93172.81
2023-03-19T13:40:54.654Z,93177.88
2023-03-19T13:42:44.758Z,93177.13
2023-03-19T13:44:22.254Z,93172.63
2023-03-19T13:46:25.991Z,93164.09
2023-03-19T13:47:58.712Z,93165.22
2023-03-19T13:49:37.881Z,93162.53
2023-03-19T13:51:12.818Z,93163.38
2023-03-19T13:52:45.225Z,93169.31
2023-03-19T13:54:18.756Z,93168.91
2023-03-19T13:55:51.835Z,93166.97
2023-03-19T13:57:32.924Z,93158.44
2023-03-19T13:59:24.596Z,93158.56
2023-03-19T14:00:58.520Z,93158.94
2023-03-19T14:02:30.438Z,93164.03
2023-03-19T14:04:05.815Z,93156.25
2023-03-19T14:05:37.802Z,93157.81
2023-03-19T14:07:13.604Z,93150.78
2023-03-19T14:08:47.607Z,93151.25
2023-03-19T14:10:26.370Z,93156.81
2023-03-19T14:12:10.121Z,93147.16
2023-03-19T14:13:42.383Z,93154.72
2023-03-19T14:15:15.577Z,93155.19
2023-03-19T14:16:49.197Z,93152.09
2023-03-19T14:18:24.688Z,93143.06
2023-03-19T14:19:56.579Z,93148.13
2023-03-19T14:22:05.451Z,93139.53
2023-03-19T14:23:42.856Z,93149.13
2023-03-19T14:25:17.681Z,93146.22
2023-03-19T14:26:50.447Z,93136.13
2023-03-19T14:28:32.638Z,93138.78
2023-03-19T14:30:11.242Z,93135.63
2023-03-19T14:31:44.365Z,93137.25
2023-03-19T14:33:20.712Z,93133.38
2023-03-19T14:34:52.583Z,93138.22
2023-03-19T14:36:24.274Z,93129.31
2023-03-19T14:37:55.930Z,93135.13
2023-03-19T14:39:29.344Z,93138.66
2023-03-19T14:41:01.393Z,93132.41
2023-03-19T14:42:34.891Z,93132.25
2023-03-19T14:44:09.696Z,93130.94
2023-03-19T14:46:07.789Z,93130.16
2023-03-19T14:47:48.755Z,93129.97
2023-03-19T14:49:21.224Z,93132.22
2023-03-19T14:50:55.676Z,93132.16
2023-03-19T14:52:28.551Z,93131.44
2023-03-19T14:54:07.392Z,93130.28
2023-03-19T14:55:39.058Z,93130.16
2023-03-19T14:57:39.990Z,93130.06
2023-03-19T14:59:11.948Z,93126.53
2023-03-19T15:00:44.485Z,93125.91
2023-03-19T15:02:21.012Z,93126.94
2023-03-19T15:03:59.322Z,93123.44
2023-03-19T15:05:33.333Z,93121.81
2023-03-19T15:07:05.366Z,93129.56
2023-03-19T15:08:37.749Z,93126.13
2023-03-19T15:10:13.999Z,93123.75
2023-03-19T15:12:21.103Z,93123.03
2023-03-19T15:13:57.347Z,93130.00
2023-03-19T15:15:39.229Z,93129.56
2023-03-19T15:17:23.688Z,93135.41
2023-03-19T15:18:55.774Z,93136.75
2023-03-19T15:20:27.713Z,93135.84
2023-03-19T15:22:06.545Z,93142.59
2023-03-19T15:23:38.297Z,93141.88
2023-03-19T15:25:13.776Z,93143.00
2023-03-19T15:26:45.572Z,93137.25
2023-03-19T15:28:18.636Z,93141.16
2023-03-19T15:29:51.717Z,93137.13
2023-03-19T15:31:33.749Z,93135.06
2023-03-19T15:33:38.903Z,93134.34
2023-03-19T15:35:13.365Z,93138.88
2023-03-19T15:36:45.105Z,93140.03
2023-03-19T15:38:17.558Z,93138.03
2023-03-19T15:39:50.619Z,93140.69
2023-03-19T15:41:23.022Z,93136.75
2023-03-19T15:42:54.627Z,93139.91
2023-03-19T15:44:44.972Z,93141.47
2023-03-19T15:46:18.072Z,93145.38
2023-03-19T15:48:10.007Z,93145.38
2023-03-19T15:49:43.024Z,93140.69
2023-03-19T15:51:14.714Z,93141.00
2023-03-19T15:52:47.553Z,93140.06
2023-03-19T15:54:19.219Z,93134.13
2023-03-19T15:55:51.790Z,93140.94
2023-03-19T15:57:23.722Z,93141.91
2023-03-19T15:58:55.956Z,93140.34
2023-03-19T16:00:27.859Z,93140.66
2023-03-19T16:02:02.708Z,93150.69
2023-03-19T16:03:38.322Z,93154.00
2023-03-19T16:05:39.353Z,93151.56
2023-03-19T16:07:20.370Z,93149.09
2023-03-19T16:08:54.248Z,93152.41
2023-03-19T16:10:28.664Z,93159.22
2023-03-19T16:12:00.739Z,93152.38
2023-03-19T16:13:38.156Z,93157.19
2023-03-19T16:15:28.899Z,93162.75
2023-03-19T16:17:11.488Z,93161.28
2023-03-19T16:18:53.314Z,93165.31
2023-03-19T16:20:45.882Z,93157.44
2023-03-19T16:22:28.631Z,93158.66
2023-03-19T16:24:21.281Z,93154.69
2023-03-19T16:25:53.055Z,93154.53
2023-03-19T16:27:37.313Z,93159.78
2023-03-19T16:29:18.234Z,93154.88
2023-03-19T16:30:50.254Z,93152.06
2023-03-19T16:32:22.824Z,93156.59
2023-03-19T16:33:54.709Z,93164.16
2023-03-19T16:35:26.287Z,93158.22
2023-03-19T16:36:58.071Z,93156.94
2023-03-19T16:38:29.711Z,93161.16
2023-03-19T16:40:24.225Z,93162.97
2023-03-19T16:42:13.941Z,93161.22
2023-03-19T16:43:46.441Z,93166.56
2023-03-19T16:45:19.244Z,93156.81
2023-03-19T16:46:51.142Z,93159.22
2023-03-19T16:48:22.804Z,93151.50
2023-03-19T16:49:54.416Z,93154.53
2023-03-19T16:51:26.033Z,93152.91
2023-03-19T16:52:57.991Z,93163.63
2023-03-19T16:54:29.655Z,93169.00
2023-03-19T16:56:01.805Z,93168.78
2023-03-19T16:57:33.388Z,93168.06
2023-03-19T16:59:05.197Z,93166.25
2023-03-19T17:00:37.104Z,93169.69
2023-03-19T17:02:12.211Z,93176.75
2023-03-19T17:03:44.275Z,93179.72
2023-03-19T17:05:16.183Z,93179.31
2023-03-19T17:06:47.706Z,93181.44
2023-03-19T17:08:21.838Z,93182.31
2023-03-19T17:09:54.046Z,93188.13
2023-03-19T17:11:28.351Z,93188.47
2023-03-19T17:12:59.969Z,93191.22
2023-03-19T17:14:31.659Z,93187.13
2023-03-19T17:16:06.970Z,93192.41
2023-03-19T17:17:38.832Z,93196.56
2023-03-19T17:19:10.939Z,93187.97
2023-03-19T17:20:46.334Z,93191.34
2023-03-19T17:22:18.412Z,93194.53
2023-03-19T17:23:50.404Z,93194.84
2023-03-19T17:25:22.305Z,93189.28
2023-03-19T17:26:54.203Z,93201.41
2023-03-19T17:28:25.782Z,93193.94
2023-03-19T17:29:57.467Z,93197.63
2023-03-19T17:31:29.995Z,93201.31
2023-03-19T17:33:01.624Z,93203.06
2023-03-19T17:34:33.340Z,93210.38
2023-03-19T17:36:05.424Z,93211.50
2023-03-19T17:37:36.950Z,93215.31
2023-03-19T17:39:10.460Z,93212.16
2023-03-19T17:40:42.248Z,93220.94
2023-03-19T17:42:18.415Z,93212.31
2023-03-19T17:43:50.000Z,93214.22
2023-03-19T17:45:23.441Z,93219.47
2023-03-19T17:46:55.125Z,93218.88
2023-03-19T17:48:26.849Z,93219.34
2023-03-19T17:49:58.456Z,93220.50
2023-03-19T17:51:31.180Z,93224.00
2023-03-19T17:53:02.668Z,93220.19
2023-03-19T17:54:34.194Z,93226.72
2023-03-19T17:56:05.923Z,93224.84
2023-03-19T17:57:37.557Z,93222.16
2023-03-19T17:59:11.910Z,93220.25
2023-03-19T18:00:43.828Z,93222.63
2023-03-19T18:02:22.963Z,93224.41
2023-03-19T18:03:55.570Z,93222.31
2023-03-19T18:05:27.207Z,93223.25
2023-03-19T18:06:58.895Z,93225.03
2023-03-19T18:08:30.791Z,93225.16
2023-03-19T18:10:02.352Z,93227.69
2023-03-19T18:11:33.908Z,93230.41
2023-03-19T18:13:07.440Z,93225.47
2023-03-19T18:14:39.171Z,93228.34
2023-03-19T18:16:28.109Z,93229.94
2023-03-19T18:17:59.657Z,93234.25
2023-03-19T18:19:32.185Z,93236.94
2023-03-19T18:21:03.802Z,93242.66
2023-03-19T18:22:36.717Z,93241.06
2023-03-19T18:24:09.686Z,93242.66
2023-03-19T18:25:41.960Z,93237.56
2023-03-19T18:27:13.500Z,93248.19
2023-03-19T18:28:45.483Z,93241.50
2023-03-19T18:30:17.779Z,93253.28